sensor_id;sensor_type;location;lat;lon;timestamp;P1;durP1;ratioP1;P2;durP2;ratioP2
30380;SDS011;17169;50.966;11.038;2023-11-19T00:02:50;0.50;;;0.50;;
30380;SDS011;17169;50.966;11.038;2023-11-19T00:05:53;0.83;;;0.70;;
30380;SDS011;17169;50.966;11.038;2023-11-19T00:08:56;0.50;;;0.50;;
30380;SDS011;17169;50.966;11.038;2023-11-19T00:11:59;0.98;;;0.68;;
30380;SDS011;17169;50.966;11.038;2023-11-19T00:15:02;0.98;;;0.60;;
30380;SDS011;17169;50.966;11.038;2023-11-19T00:18:06;0.50;;;0.50;;
30380;SDS011;17169;50.966;11.038;2023-11-19T00:21:09;0.93;;;0.57;;
30380;SDS011;17169;50.966;11.038;2023-11-19T00:24:12;0.60;;;0.60;;
30380;SDS011;17169;50.966;11.038;2023-11-19T00:27:16;0.60;;;0.60;;
30380;SDS011;17169;50.966;11.038;2023-11-19T00:30:19;0.40;;;0.40;;
30380;SDS011;17169;50.966;11.038;2023-11-19T00:33:23;0.60;;;0.60;;
30380;SDS011;17169;50.966;11.038;2023-11-19T00:36:25;0.50;;;0.50;;
30380;SDS011;17169;50.966;11.038;2023-11-19T00:39:27;0.60;;;0.60;;
30380;SDS011;17169;50.966;11.038;2023-11-19T00:42:30;1.13;;;0.70;;
30380;SDS011;17169;50.966;11.038;2023-11-19T00:45:32;0.50;;;0.50;;
30380;SDS011;17169;50.966;11.038;2023-11-19T00:48:36;0.65;;;0.65;;
30380;SDS011;17169;50.966;11.038;2023-11-19T00:51:38;0.63;;;0.55;;
30380;SDS011;17169;50.966;11.038;2023-11-19T00:54:41;0.50;;;0.50;;
30380;SDS011;17169;50.966;11.038;2023-11-19T00:57:43;0.50;;;0.50;;
30380;SDS011;17169;50.966;11.038;2023-11-19T01:00:45;0.50;;;0.50;;
30380;SDS011;17169;50.966;11.038;2023-11-19T01:03:49;0.75;;;0.50;;
30380;SDS011;17169;50.966;11.038;2023-11-19T01:06:51;0.82;;;0.65;;
30380;SDS011;17169;50.966;11.038;2023-11-19T01:09:55;0.73;;;0.70;;
30380;SDS011;17169;50.966;11.038;2023-11-19T01:12:57;3.63;;;1.88;;
30380;SDS011;17169;50.966;11.038;2023-11-19T01:16:00;0.68;;;0.68;;
30380;SDS011;17169;50.966;11.038;2023-11-19T01:19:04;0.88;;;0.60;;
30380;SDS011;17169;50.966;11.038;2023-11-19T01:22:06;0.50;;;0.50;;
30380;SDS011;17169;50.966;11.038;2023-11-19T01:25:09;0.93;;;0.63;;
30380;SDS011;17169;50.966;11.038;2023-11-19T01:28:11;2.05;;;0.82;;
30380;SDS011;17169;50.966;11.038;2023-11-19T01:31:15;1.25;;;0.70;;
30380;SDS011;17169;50.966;11.038;2023-11-19T01:34:19;0.68;;;0.60;;
30380;SDS011;17169;50.966;11.038;2023-11-19T01:37:21;3.30;;;0.60;;
30380;SDS011;17169;50.966;11.038;2023-11-19T01:40:23;0.65;;;0.60;;
30380;SDS011;17169;50.966;11.038;2023-11-19T01:43:32;0.85;;;0.65;;
30380;SDS011;17169;50.966;11.038;2023-11-19T01:46:35;2.10;;;0.70;;
30380;SDS011;17169;50.966;11.038;2023-11-19T01:49:39;0.50;;;0.50;;
30380;SDS011;17169;50.966;11.038;2023-11-19T01:52:42;1.65;;;0.60;;
30380;SDS011;17169;50.966;11.038;2023-11-19T01:55:44;0.50;;;0.50;;
30380;SDS011;17169;50.966;11.038;2023-11-19T01:58:49;0.50;;;0.50;;
30380;SDS011;17169;50.966;11.038;2023-11-19T02:01:52;0.50;;;0.50;;
30380;SDS011;17169;50.966;11.038;2023-11-19T02:04:56;2.35;;;0.50;;
30380;SDS011;17169;50.966;11.038;2023-11-19T02:07:59;0.50;;;0.50;;
30380;SDS011;17169;50.966;11.038;2023-11-19T02:11:02;0.50;;;0.50;;
30380;SDS011;17169;50.966;11.038;2023-11-19T02:14:04;0.82;;;0.50;;
30380;SDS011;17169;50.966;11.038;2023-11-19T02:17:07;0.50;;;0.50;;
30380;SDS011;17169;50.966;11.038;2023-11-19T02:20:27;0.50;;;0.50;;
30380;SDS011;17169;50.966;11.038;2023-11-19T02:23:30;0.50;;;0.50;;
30380;SDS011;17169;50.966;11.038;2023-11-19T02:26:33;0.47;;;0.47;;
30380;SDS011;17169;50.966;11.038;2023-11-19T02:29:42;1.88;;;0.50;;
30380;SDS011;17169;50.966;11.038;2023-11-19T02:32:44;0.50;;;0.50;;
30380;SDS011;17169;50.966;11.038;2023-11-19T02:35:48;0.57;;;0.57;;
30380;SDS011;17169;50.966;11.038;2023-11-19T02:38:51;1.65;;;0.73;;
30380;SDS011;17169;50.966;11.038;2023-11-19T02:41:53;0.50;;;0.50;;
30380;SDS011;17169;50.966;11.038;2023-11-19T02:44:57;0.50;;;0.50;;
30380;SDS011;17169;50.966;11.038;2023-11-19T02:47:59;0.50;;;0.50;;
30380;SDS011;17169;50.966;11.038;2023-11-19T02:51:03;0.40;;;0.40;;
30380;SDS011;17169;50.966;11.038;2023-11-19T02:54:09;0.50;;;0.50;;
30380;SDS011;17169;50.966;11.038;2023-11-19T02:57:12;0.40;;;0.40;;
30380;SDS011;17169;50.966;11.038;2023-11-19T03:00:16;0.47;;;0.47;;
30380;SDS011;17169;50.966;11.038;2023-11-19T03:03:19;0.80;;;0.50;;
30380;SDS011;17169;50.966;11.038;2023-11-19T03:06:23;0.43;;;0.43;;
30380;SDS011;17169;50.966;11.038;2023-11-19T03:09:25;0.50;;;0.50;;
30380;SDS011;17169;50.966;11.038;2023-11-19T03:12:29;0.40;;;0.40;;
30380;SDS011;17169;50.966;11.038;2023-11-19T03:15:33;1.02;;;0.50;;
30380;SDS011;17169;50.966;11.038;2023-11-19T03:18:35;0.55;;;0.50;;
30380;SDS011;17169;50.966;11.038;2023-11-19T06:20:16;3.65;;;1.70;;
30380;SDS011;17169;50.966;11.038;2023-11-19T06:23:20;14.63;;;7.88;;
30380;SDS011;17169;50.966;11.038;2023-11-19T06:26:22;1.27;;;0.90;;
30380;SDS011;17169;50.966;11.038;2023-11-19T06:29:25;1.08;;;0.70;;
30380;SDS011;17169;50.966;11.038;2023-11-19T06:32:27;1.10;;;1.00;;
30380;SDS011;17169;50.966;11.038;2023-11-19T06:35:31;10.45;;;6.05;;
30380;SDS011;17169;50.966;11.038;2023-11-19T06:38:36;1.90;;;0.93;;
30380;SDS011;17169;50.966;11.038;2023-11-19T06:41:38;3.20;;;1.55;;
30380;SDS011;17169;50.966;11.038;2023-11-19T06:44:45;2.88;;;0.70;;
30380;SDS011;17169;50.966;11.038;2023-11-19T06:47:48;9.32;;;4.57;;
30380;SDS011;17169;50.966;11.038;2023-11-19T06:50:52;6.63;;;3.60;;
30380;SDS011;17169;50.966;11.038;2023-11-19T06:53:54;4.57;;;1.58;;
30380;SDS011;17169;50.966;11.038;2023-11-19T06:56:56;4.00;;;1.70;;
30380;SDS011;17169;50.966;11.038;2023-11-19T06:59:59;2.90;;;1.20;;
30380;SDS011;17169;50.966;11.038;2023-11-19T07:03:01;4.43;;;1.05;;
30380;SDS011;17169;50.966;11.038;2023-11-19T07:06:05;3.10;;;1.27;;
30380;SDS011;17169;50.966;11.038;2023-11-19T07:09:08;0.75;;;0.70;;
30380;SDS011;17169;50.966;11.038;2023-11-19T07:12:11;2.90;;;1.30;;
30380;SDS011;17169;50.966;11.038;2023-11-19T07:15:14;3.15;;;1.30;;
30380;SDS011;17169;50.966;11.038;2023-11-19T07:18:18;3.30;;;0.98;;
30380;SDS011;17169;50.966;11.038;2023-11-19T07:21:23;6.43;;;1.40;;
30380;SDS011;17169;50.966;11.038;2023-11-19T07:24:26;2.60;;;0.85;;
30380;SDS011;17169;50.966;11.038;2023-11-19T07:27:28;3.60;;;0.98;;
30380;SDS011;17169;50.966;11.038;2023-11-19T07:30:31;3.95;;;1.10;;
30380;SDS011;17169;50.966;11.038;2023-11-19T07:33:33;5.15;;;1.00;;
30380;SDS011;17169;50.966;11.038;2023-11-19T07:36:37;1.88;;;0.85;;
30380;SDS011;17169;50.966;11.038;2023-11-19T07:39:39;3.70;;;1.10;;
30380;SDS011;17169;50.966;11.038;2023-11-19T07:42:42;4.82;;;1.05;;
30380;SDS011;17169;50.966;11.038;2023-11-19T07:45:45;2.13;;;0.90;;
30380;SDS011;17169;50.966;11.038;2023-11-19T07:48:47;2.25;;;0.95;;
30380;SDS011;17169;50.966;11.038;2023-11-19T07:51:51;5.35;;;1.10;;
30380;SDS011;17169;50.966;11.038;2023-11-19T07:54:53;4.05;;;0.88;;
30380;SDS011;17169;50.966;11.038;2023-11-19T07:57:55;2.63;;;0.80;;
30380;SDS011;17169;50.966;11.038;2023-11-19T08:00:58;3.88;;;1.13;;
30380;SDS011;17169;50.966;11.038;2023-11-19T08:04:00;4.75;;;0.90;;
30380;SDS011;17169;50.966;11.038;2023-11-19T08:07:04;5.95;;;1.02;;
30380;SDS011;17169;50.966;11.038;2023-11-19T08:10:07;2.45;;;0.90;;
30380;SDS011;17169;50.966;11.038;2023-11-19T08:13:11;2.25;;;0.93;;
30380;SDS011;17169;50.966;11.038;2023-11-19T08:16:14;2.47;;;0.80;;
30380;SDS011;17169;50.966;11.038;2023-11-19T08:19:16;3.10;;;0.90;;
30380;SDS011;17169;50.966;11.038;2023-11-19T08:22:20;5.38;;;1.10;;
30380;SDS011;17169;50.966;11.038;2023-11-19T08:25:23;2.05;;;0.90;;
30380;SDS011;17169;50.966;11.038;2023-11-19T08:28:25;3.75;;;0.80;;
30380;SDS011;17169;50.966;11.038;2023-11-19T08:31:28;4.60;;;1.02;;
30380;SDS011;17169;50.966;11.038;2023-11-19T08:34:30;1.90;;;0.88;;
30380;SDS011;17169;50.966;11.038;2023-11-19T08:37:34;2.95;;;0.88;;
30380;SDS011;17169;50.966;11.038;2023-11-19T08:40:37;8.15;;;1.55;;
30380;SDS011;17169;50.966;11.038;2023-11-19T08:43:40;2.78;;;1.10;;
30380;SDS011;17169;50.966;11.038;2023-11-19T08:46:46;4.00;;;1.27;;
30380;SDS011;17169;50.966;11.038;2023-11-19T08:49:50;4.90;;;1.52;;
30380;SDS011;17169;50.966;11.038;2023-11-19T08:52:55;5.80;;;1.45;;
30380;SDS011;17169;50.966;11.038;2023-11-19T08:55:58;4.82;;;1.60;;
30380;SDS011;17169;50.966;11.038;2023-11-19T08:59:01;7.82;;;1.70;;
30380;SDS011;17169;50.966;11.038;2023-11-19T09:02:03;6.22;;;1.52;;
30380;SDS011;17169;50.966;11.038;2023-11-19T09:05:06;7.13;;;1.88;;
30380;SDS011;17169;50.966;11.038;2023-11-19T09:08:10;9.77;;;1.67;;
30380;SDS011;17169;50.966;11.038;2023-11-19T09:11:13;6.45;;;1.42;;
30380;SDS011;17169;50.966;11.038;2023-11-19T09:14:15;6.30;;;1.48;;
30380;SDS011;17169;50.966;11.038;2023-11-19T09:17:18;11.68;;;2.78;;
30380;SDS011;17169;50.966;11.038;2023-11-19T09:20:21;12.45;;;2.50;;
30380;SDS011;17169;50.966;11.038;2023-11-19T09:23:25;9.50;;;1.60;;
30380;SDS011;17169;50.966;11.038;2023-11-19T09:26:28;10.15;;;2.15;;
30380;SDS011;17169;50.966;11.038;2023-11-19T09:29:31;9.48;;;2.05;;
30380;SDS011;17169;50.966;11.038;2023-11-19T09:32:34;7.72;;;1.98;;
30380;SDS011;17169;50.966;11.038;2023-11-19T09:35:38;14.18;;;2.50;;
30380;SDS011;17169;50.966;11.038;2023-11-19T09:38:41;19.15;;;3.05;;
30380;SDS011;17169;50.966;11.038;2023-11-19T09:41:45;9.18;;;3.17;;
30380;SDS011;17169;50.966;11.038;2023-11-19T09:44:48;11.18;;;2.10;;
30380;SDS011;17169;50.966;11.038;2023-11-19T09:47:51;12.98;;;1.90;;
30380;SDS011;17169;50.966;11.038;2023-11-19T09:50:54;13.50;;;2.60;;
30380;SDS011;17169;50.966;11.038;2023-11-19T09:53:58;9.88;;;2.35;;
30380;SDS011;17169;50.966;11.038;2023-11-19T09:57:01;14.48;;;3.08;;
30380;SDS011;17169;50.966;11.038;2023-11-19T10:00:04;12.98;;;3.05;;
30380;SDS011;17169;50.966;11.038;2023-11-19T10:03:08;15.68;;;2.50;;
30380;SDS011;17169;50.966;11.038;2023-11-19T10:06:12;12.47;;;2.50;;
30380;SDS011;17169;50.966;11.038;2023-11-19T10:09:17;18.15;;;3.50;;
30380;SDS011;17169;50.966;11.038;2023-11-19T10:12:20;14.45;;;3.03;;
30380;SDS011;17169;50.966;11.038;2023-11-19T10:15:23;12.57;;;2.13;;
30380;SDS011;17169;50.966;11.038;2023-11-19T10:18:27;10.65;;;2.67;;
30380;SDS011;17169;50.966;11.038;2023-11-19T10:21:32;10.65;;;2.60;;
30380;SDS011;17169;50.966;11.038;2023-11-19T10:24:36;13.18;;;2.55;;
30380;SDS011;17169;50.966;11.038;2023-11-19T10:27:41;13.63;;;2.50;;
30380;SDS011;17169;50.966;11.038;2023-11-19T10:30:45;11.52;;;2.58;;
30380;SDS011;17169;50.966;11.038;2023-11-19T10:33:50;7.75;;;2.30;;
30380;SDS011;17169;50.966;11.038;2023-11-19T10:36:53;13.63;;;4.00;;
30380;SDS011;17169;50.966;11.038;2023-11-19T10:39:56;12.77;;;2.97;;
30380;SDS011;17169;50.966;11.038;2023-11-19T10:43:01;13.05;;;2.20;;
30380;SDS011;17169;50.966;11.038;2023-11-19T10:46:11;12.27;;;2.40;;
30380;SDS011;17169;50.966;11.038;2023-11-19T10:49:14;10.35;;;2.08;;
30380;SDS011;17169;50.966;11.038;2023-11-19T10:52:17;9.98;;;2.05;;
30380;SDS011;17169;50.966;11.038;2023-11-19T10:55:22;13.13;;;2.45;;
30380;SDS011;17169;50.966;11.038;2023-11-19T10:58:29;12.98;;;3.33;;
30380;SDS011;17169;50.966;11.038;2023-11-19T11:01:35;16.35;;;2.55;;
30380;SDS011;17169;50.966;11.038;2023-11-19T11:04:43;12.50;;;2.47;;
30380;SDS011;17169;50.966;11.038;2023-11-19T11:07:49;11.57;;;2.50;;
30380;SDS011;17169;50.966;11.038;2023-11-19T11:10:58;10.98;;;2.70;;
30380;SDS011;17169;50.966;11.038;2023-11-19T11:17:04;12.38;;;2.63;;
30380;SDS011;17169;50.966;11.038;2023-11-19T11:20:08;10.52;;;2.92;;
30380;SDS011;17169;50.966;11.038;2023-11-19T11:23:17;10.30;;;2.05;;
30380;SDS011;17169;50.966;11.038;2023-11-19T11:30:07;13.77;;;2.65;;
30380;SDS011;17169;50.966;11.038;2023-11-19T11:33:32;9.80;;;2.85;;
30380;SDS011;17169;50.966;11.038;2023-11-19T11:36:44;15.95;;;2.55;;
30380;SDS011;17169;50.966;11.038;2023-11-19T11:39:56;14.20;;;2.53;;
30380;SDS011;17169;50.966;11.038;2023-11-19T11:43:01;13.77;;;2.33;;
30380;SDS011;17169;50.966;11.038;2023-11-19T11:49:08;12.38;;;2.22;;
30380;SDS011;17169;50.966;11.038;2023-11-19T11:52:13;13.60;;;2.17;;
30380;SDS011;17169;50.966;11.038;2023-11-19T11:55:16;15.63;;;2.42;;
30380;SDS011;17169;50.966;11.038;2023-11-19T11:58:20;13.15;;;2.70;;
30380;SDS011;17169;50.966;11.038;2023-11-19T12:01:23;11.95;;;2.50;;
30380;SDS011;17169;50.966;11.038;2023-11-19T12:04:29;11.25;;;2.47;;
30380;SDS011;17169;50.966;11.038;2023-11-19T12:07:31;12.32;;;2.83;;
30380;SDS011;17169;50.966;11.038;2023-11-19T12:10:43;10.68;;;3.03;;
30380;SDS011;17169;50.966;11.038;2023-11-19T12:13:58;13.65;;;2.47;;
30380;SDS011;17169;50.966;11.038;2023-11-19T12:17:03;11.05;;;3.53;;
30380;SDS011;17169;50.966;11.038;2023-11-19T12:20:26;11.60;;;2.78;;
30380;SDS011;17169;50.966;11.038;2023-11-19T12:23:32;14.88;;;2.50;;
30380;SDS011;17169;50.966;11.038;2023-11-19T12:26:35;15.10;;;2.78;;
30380;SDS011;17169;50.966;11.038;2023-11-19T12:29:42;11.73;;;2.55;;
30380;SDS011;17169;50.966;11.038;2023-11-19T12:32:46;10.82;;;3.15;;
30380;SDS011;17169;50.966;11.038;2023-11-19T12:35:48;10.63;;;2.42;;
30380;SDS011;17169;50.966;11.038;2023-11-19T12:38:50;11.88;;;2.67;;
30380;SDS011;17169;50.966;11.038;2023-11-19T12:41:53;14.93;;;3.30;;
30380;SDS011;17169;50.966;11.038;2023-11-19T12:44:57;10.95;;;2.13;;
30380;SDS011;17169;50.966;11.038;2023-11-19T12:48:05;10.45;;;2.17;;
30380;SDS011;17169;50.966;11.038;2023-11-19T12:51:08;9.38;;;2.88;;
30380;SDS011;17169;50.966;11.038;2023-11-19T12:54:11;15.35;;;2.63;;
30380;SDS011;17169;50.966;11.038;2023-11-19T12:57:14;11.45;;;2.90;;
30380;SDS011;17169;50.966;11.038;2023-11-19T13:00:21;9.98;;;2.17;;
30380;SDS011;17169;50.966;11.038;2023-11-19T13:03:29;16.75;;;2.67;;
30380;SDS011;17169;50.966;11.038;2023-11-19T13:06:32;9.70;;;2.08;;
30380;SDS011;17169;50.966;11.038;2023-11-19T13:09:34;13.25;;;2.40;;
30380;SDS011;17169;50.966;11.038;2023-11-19T13:12:37;13.93;;;3.20;;
30380;SDS011;17169;50.966;11.038;2023-11-19T13:15:41;14.75;;;2.90;;
30380;SDS011;17169;50.966;11.038;2023-11-19T13:21:47;18.52;;;2.90;;
30380;SDS011;17169;50.966;11.038;2023-11-19T13:24:49;17.75;;;2.40;;
30380;SDS011;17169;50.966;11.038;2023-11-19T13:27:52;13.40;;;2.53;;
30380;SDS011;17169;50.966;11.038;2023-11-19T13:30:56;16.50;;;2.58;;
30380;SDS011;17169;50.966;11.038;2023-11-19T13:33:58;10.43;;;2.67;;
30380;SDS011;17169;50.966;11.038;2023-11-19T13:37:01;15.20;;;2.88;;
30380;SDS011;17169;50.966;11.038;2023-11-19T13:40:03;12.88;;;2.80;;
30380;SDS011;17169;50.966;11.038;2023-11-19T13:43:07;14.38;;;2.65;;
30380;SDS011;17169;50.966;11.038;2023-11-19T13:46:10;13.98;;;3.00;;
30380;SDS011;17169;50.966;11.038;2023-11-19T13:49:13;19.50;;;3.15;;
30380;SDS011;17169;50.966;11.038;2023-11-19T13:52:16;19.83;;;2.65;;
30380;SDS011;17169;50.966;11.038;2023-11-19T13:55:18;12.63;;;2.47;;
30380;SDS011;17169;50.966;11.038;2023-11-19T13:58:21;12.63;;;2.90;;
30380;SDS011;17169;50.966;11.038;2023-11-19T14:01:24;16.88;;;3.70;;
30380;SDS011;17169;50.966;11.038;2023-11-19T14:04:28;13.35;;;2.92;;
30380;SDS011;17169;50.966;11.038;2023-11-19T14:07:30;13.55;;;2.33;;
30380;SDS011;17169;50.966;11.038;2023-11-19T14:10:33;14.50;;;2.50;;
30380;SDS011;17169;50.966;11.038;2023-11-19T14:13:35;12.80;;;3.17;;
30380;SDS011;17169;50.966;11.038;2023-11-19T14:16:39;15.13;;;2.58;;
30380;SDS011;17169;50.966;11.038;2023-11-19T14:19:41;10.73;;;2.50;;
30380;SDS011;17169;50.966;11.038;2023-11-19T14:22:45;13.55;;;2.40;;
30380;SDS011;17169;50.966;11.038;2023-11-19T14:25:49;12.02;;;2.45;;
30380;SDS011;17169;50.966;11.038;2023-11-19T14:28:51;14.25;;;3.25;;
30380;SDS011;17169;50.966;11.038;2023-11-19T14:31:55;14.90;;;2.72;;
30380;SDS011;17169;50.966;11.038;2023-11-19T14:34:57;13.38;;;4.07;;
30380;SDS011;17169;50.966;11.038;2023-11-19T14:38:00;15.00;;;2.78;;
30380;SDS011;17169;50.966;11.038;2023-11-19T14:41:05;17.50;;;3.70;;
30380;SDS011;17169;50.966;11.038;2023-11-19T14:44:08;13.88;;;2.90;;
30380;SDS011;17169;50.966;11.038;2023-11-19T14:47:12;15.82;;;3.15;;
30380;SDS011;17169;50.966;11.038;2023-11-19T14:50:14;15.32;;;2.67;;
30380;SDS011;17169;50.966;11.038;2023-11-19T14:53:17;17.38;;;2.83;;
30380;SDS011;17169;50.966;11.038;2023-11-19T14:56:20;11.70;;;2.40;;
30380;SDS011;17169;50.966;11.038;2023-11-19T14:59:23;13.45;;;2.55;;
30380;SDS011;17169;50.966;11.038;2023-11-19T15:02:27;16.40;;;2.80;;
30380;SDS011;17169;50.966;11.038;2023-11-19T15:05:29;13.50;;;2.30;;
30380;SDS011;17169;50.966;11.038;2023-11-19T15:08:32;21.80;;;3.80;;
30380;SDS011;17169;50.966;11.038;2023-11-19T15:11:34;16.83;;;3.08;;
30380;SDS011;17169;50.966;11.038;2023-11-19T15:14:36;11.75;;;2.35;;
30380;SDS011;17169;50.966;11.038;2023-11-19T15:17:40;14.32;;;3.47;;
30380;SDS011;17169;50.966;11.038;2023-11-19T15:20:42;17.27;;;3.47;;
30380;SDS011;17169;50.966;11.038;2023-11-19T15:23:47;16.17;;;3.95;;
30380;SDS011;17169;50.966;11.038;2023-11-19T15:26:50;15.35;;;3.17;;
30380;SDS011;17169;50.966;11.038;2023-11-19T15:29:52;19.73;;;4.43;;
30380;SDS011;17169;50.966;11.038;2023-11-19T15:32:56;16.70;;;3.35;;
30380;SDS011;17169;50.966;11.038;2023-11-19T15:35:58;12.52;;;3.38;;
30380;SDS011;17169;50.966;11.038;2023-11-19T15:39:03;20.77;;;3.55;;
30380;SDS011;17169;50.966;11.038;2023-11-19T15:42:06;13.75;;;2.95;;
30380;SDS011;17169;50.966;11.038;2023-11-19T15:45:10;19.40;;;2.57;;
30380;SDS011;17169;50.966;11.038;2023-11-19T15:48:14;11.18;;;3.25;;
30380;SDS011;17169;50.966;11.038;2023-11-19T15:51:18;19.02;;;3.65;;
30380;SDS011;17169;50.966;11.038;2023-11-19T15:54:20;8.05;;;2.10;;
30380;SDS011;17169;50.966;11.038;2023-11-19T15:57:23;14.82;;;2.95;;
30380;SDS011;17169;50.966;11.038;2023-11-19T16:00:26;11.27;;;2.22;;
30380;SDS011;17169;50.966;11.038;2023-11-19T16:03:30;11.02;;;2.17;;
30380;SDS011;17169;50.966;11.038;2023-11-19T16:06:33;12.57;;;2.17;;
30380;SDS011;17169;50.966;11.038;2023-11-19T16:09:36;10.95;;;3.05;;
30380;SDS011;17169;50.966;11.038;2023-11-19T16:12:38;11.77;;;2.50;;
30380;SDS011;17169;50.966;11.038;2023-11-19T16:15:41;18.83;;;4.00;;
30380;SDS011;17169;50.966;11.038;2023-11-19T16:18:45;11.75;;;2.70;;
30380;SDS011;17169;50.966;11.038;2023-11-19T16:21:47;17.08;;;2.92;;
30380;SDS011;17169;50.966;11.038;2023-11-19T16:24:50;10.20;;;2.78;;
30380;SDS011;17169;50.966;11.038;2023-11-19T16:27:54;9.73;;;2.17;;
30380;SDS011;17169;50.966;11.038;2023-11-19T16:30:57;10.93;;;2.20;;
30380;SDS011;17169;50.966;11.038;2023-11-19T16:34:01;5.97;;;1.92;;
30380;SDS011;17169;50.966;11.038;2023-11-19T16:37:05;7.03;;;1.63;;
30380;SDS011;17169;50.966;11.038;2023-11-19T16:40:08;13.23;;;2.90;;
30380;SDS011;17169;50.966;11.038;2023-11-19T16:43:12;9.27;;;2.35;;
30380;SDS011;17169;50.966;11.038;2023-11-19T16:46:14;10.45;;;3.30;;
30380;SDS011;17169;50.966;11.038;2023-11-19T16:49:18;9.13;;;2.15;;
30380;SDS011;17169;50.966;11.038;2023-11-19T16:52:20;10.88;;;1.98;;
30380;SDS011;17169;50.966;11.038;2023-11-19T16:55:23;9.65;;;2.42;;
30380;SDS011;17169;50.966;11.038;2023-11-19T16:58:26;12.27;;;2.20;;
30380;SDS011;17169;50.966;11.038;2023-11-19T17:01:28;9.48;;;2.55;;
30380;SDS011;17169;50.966;11.038;2023-11-19T17:04:32;12.07;;;2.35;;
30380;SDS011;17169;50.966;11.038;2023-11-19T17:07:35;11.52;;;2.70;;
30380;SDS011;17169;50.966;11.038;2023-11-19T17:10:37;10.95;;;2.05;;
30380;SDS011;17169;50.966;11.038;2023-11-19T17:13:40;9.07;;;2.42;;
30380;SDS011;17169;50.966;11.038;2023-11-19T17:16:43;19.02;;;3.28;;
30380;SDS011;17169;50.966;11.038;2023-11-19T17:19:46;18.77;;;2.80;;
30380;SDS011;17169;50.966;11.038;2023-11-19T17:22:49;11.98;;;2.72;;
30380;SDS011;17169;50.966;11.038;2023-11-19T17:25:51;13.43;;;3.03;;
30380;SDS011;17169;50.966;11.038;2023-11-19T17:28:54;16.90;;;3.03;;
30380;SDS011;17169;50.966;11.038;2023-11-19T17:31:56;13.20;;;2.70;;
30380;SDS011;17169;50.966;11.038;2023-11-19T17:35:00;9.02;;;2.28;;
30380;SDS011;17169;50.966;11.038;2023-11-19T17:38:02;17.50;;;2.75;;
30380;SDS011;17169;50.966;11.038;2023-11-19T17:41:05;12.63;;;2.33;;
30380;SDS011;17169;50.966;11.038;2023-11-19T17:44:09;12.85;;;2.20;;
30380;SDS011;17169;50.966;11.038;2023-11-19T17:47:11;8.95;;;2.08;;
30380;SDS011;17169;50.966;11.038;2023-11-19T17:50:16;9.93;;;2.15;;
30380;SDS011;17169;50.966;11.038;2023-11-19T17:53:18;14.85;;;2.70;;
30380;SDS011;17169;50.966;11.038;2023-11-19T17:56:20;8.35;;;2.45;;
30380;SDS011;17169;50.966;11.038;2023-11-19T17:59:23;8.32;;;2.30;;
30380;SDS011;17169;50.966;11.038;2023-11-19T18:02:25;12.57;;;2.28;;
30380;SDS011;17169;50.966;11.038;2023-11-19T18:05:29;7.57;;;1.73;;
30380;SDS011;17169;50.966;11.038;2023-11-19T18:08:32;12.07;;;2.42;;
30380;SDS011;17169;50.966;11.038;2023-11-19T18:11:35;8.98;;;2.92;;
30380;SDS011;17169;50.966;11.038;2023-11-19T18:14:38;10.77;;;2.53;;
30380;SDS011;17169;50.966;11.038;2023-11-19T18:17:41;16.25;;;3.10;;
30380;SDS011;17169;50.966;11.038;2023-11-19T18:20:45;12.93;;;2.53;;
30380;SDS011;17169;50.966;11.038;2023-11-19T18:23:47;10.02;;;1.98;;
30380;SDS011;17169;50.966;11.038;2023-11-19T18:26:49;10.80;;;2.22;;
30380;SDS011;17169;50.966;11.038;2023-11-19T18:29:52;9.45;;;2.22;;
30380;SDS011;17169;50.966;11.038;2023-11-19T18:32:54;7.30;;;2.20;;
30380;SDS011;17169;50.966;11.038;2023-11-19T18:35:58;8.50;;;2.10;;
30380;SDS011;17169;50.966;11.038;2023-11-19T18:39:00;9.48;;;2.10;;
30380;SDS011;17169;50.966;11.038;2023-11-19T18:42:04;6.38;;;1.95;;
30380;SDS011;17169;50.966;11.038;2023-11-19T18:45:07;10.80;;;3.33;;
30380;SDS011;17169;50.966;11.038;2023-11-19T18:48:10;10.07;;;2.20;;
30380;SDS011;17169;50.966;11.038;2023-11-19T18:51:14;6.10;;;2.00;;
30380;SDS011;17169;50.966;11.038;2023-11-19T18:54:16;8.38;;;2.20;;
30380;SDS011;17169;50.966;11.038;2023-11-19T18:57:21;6.60;;;2.00;;
30380;SDS011;17169;50.966;11.038;2023-11-19T19:00:23;6.45;;;1.90;;
30380;SDS011;17169;50.966;11.038;2023-11-19T19:03:26;7.63;;;1.80;;
30380;SDS011;17169;50.966;11.038;2023-11-19T19:09:35;7.22;;;2.10;;
30380;SDS011;17169;50.966;11.038;2023-11-19T19:12:38;9.45;;;2.53;;
30380;SDS011;17169;50.966;11.038;2023-11-19T19:15:40;7.63;;;1.95;;
30380;SDS011;17169;50.966;11.038;2023-11-19T19:18:43;9.30;;;2.15;;
30380;SDS011;17169;50.966;11.038;2023-11-19T19:21:47;7.85;;;1.85;;
30380;SDS011;17169;50.966;11.038;2023-11-19T19:24:49;13.20;;;2.38;;
30380;SDS011;17169;50.966;11.038;2023-11-19T19:27:52;8.75;;;1.80;;
30380;SDS011;17169;50.966;11.038;2023-11-19T19:30:54;8.95;;;2.15;;
30380;SDS011;17169;50.966;11.038;2023-11-19T19:33:56;9.85;;;1.98;;
30380;SDS011;17169;50.966;11.038;2023-11-19T19:37:00;12.50;;;2.15;;
30380;SDS011;17169;50.966;11.038;2023-11-19T19:40:03;16.45;;;2.58;;
30380;SDS011;17169;50.966;11.038;2023-11-19T19:43:05;13.18;;;2.30;;
30380;SDS011;17169;50.966;11.038;2023-11-19T19:46:10;10.68;;;2.70;;
30380;SDS011;17169;50.966;11.038;2023-11-19T19:49:12;10.70;;;4.13;;
30380;SDS011;17169;50.966;11.038;2023-11-19T19:52:16;12.35;;;2.00;;
30380;SDS011;17169;50.966;11.038;2023-11-19T19:55:18;14.07;;;2.75;;
30380;SDS011;17169;50.966;11.038;2023-11-19T19:58:21;8.73;;;2.40;;
30380;SDS011;17169;50.966;11.038;2023-11-19T20:01:23;14.23;;;2.58;;
30380;SDS011;17169;50.966;11.038;2023-11-19T20:04:26;8.55;;;3.22;;
30380;SDS011;17169;50.966;11.038;2023-11-19T20:07:31;10.98;;;2.70;;
30380;SDS011;17169;50.966;11.038;2023-11-19T20:10:33;10.20;;;2.17;;
30380;SDS011;17169;50.966;11.038;2023-11-19T20:13:37;12.02;;;2.53;;
30380;SDS011;17169;50.966;11.038;2023-11-19T20:16:39;14.20;;;2.25;;
30380;SDS011;17169;50.966;11.038;2023-11-19T20:19:41;16.40;;;2.92;;
30380;SDS011;17169;50.966;11.038;2023-11-19T20:22:45;17.95;;;2.53;;
30380;SDS011;17169;50.966;11.038;2023-11-19T20:25:52;16.33;;;3.05;;
30380;SDS011;17169;50.966;11.038;2023-11-19T20:28:55;11.82;;;2.67;;
30380;SDS011;17169;50.966;11.038;2023-11-19T20:31:57;10.27;;;2.22;;
30380;SDS011;17169;50.966;11.038;2023-11-19T20:35:00;8.50;;;2.30;;
30380;SDS011;17169;50.966;11.038;2023-11-19T20:38:04;15.13;;;2.40;;
30380;SDS011;17169;50.966;11.038;2023-11-19T20:41:06;12.07;;;2.42;;
30380;SDS011;17169;50.966;11.038;2023-11-19T20:44:10;9.30;;;2.10;;
30380;SDS011;17169;50.966;11.038;2023-11-19T20:47:12;14.18;;;2.65;;
30380;SDS011;17169;50.966;11.038;2023-11-19T20:50:14;14.48;;;2.90;;
30380;SDS011;17169;50.966;11.038;2023-11-19T20:53:18;12.75;;;2.47;;
30380;SDS011;17169;50.966;11.038;2023-11-19T20:56:21;15.48;;;2.70;;
30380;SDS011;17169;50.966;11.038;2023-11-19T20:59:24;11.63;;;2.72;;
30380;SDS011;17169;50.966;11.038;2023-11-19T21:02:27;20.23;;;2.45;;
30380;SDS011;17169;50.966;11.038;2023-11-19T21:05:29;13.60;;;3.67;;
30380;SDS011;17169;50.966;11.038;2023-11-19T21:08:34;11.13;;;2.58;;
30380;SDS011;17169;50.966;11.038;2023-11-19T21:11:37;14.33;;;2.60;;
30380;SDS011;17169;50.966;11.038;2023-11-19T21:14:39;15.65;;;2.35;;
30380;SDS011;17169;50.966;11.038;2023-11-19T21:17:42;15.23;;;2.63;;